Map

Track Data

SID SEASON NUMBER BASIN SUBBASIN NAME ISO_TIME NATURE LAT LON WMO_WIND WMO_PRES WMO_AGENCY TRACK_TYPE DIST2LAND LANDFALL IFLAG USA_AGENCY USA_ATCF_ID USA_LAT USA_LON USA_RECORD USA_STATUS USA_WIND USA_PRES USA_SSHS USA_R34_NE USA_R34_SE USA_R34_SW USA_R34_NW USA_R50_NE USA_R50_SE USA_R50_SW USA_R50_NW USA_R64_NE USA_R64_SE USA_R64_SW USA_R64_NW USA_POCI USA_ROCI USA_RMW USA_EYE TOKYO_LAT TOKYO_LON TOKYO_GRADE TOKYO_WIND TOKYO_PRES TOKYO_R50_DIR TOKYO_R50_LONG TOKYO_R50_SHORT TOKYO_R30_DIR TOKYO_R30_LONG TOKYO_R30_SHORT TOKYO_LAND CMA_LAT CMA_LON CMA_CAT CMA_WIND CMA_PRES HKO_LAT HKO_LON HKO_CAT HKO_WIND HKO_PRES NEWDELHI_LAT NEWDELHI_LON NEWDELHI_GRADE NEWDELHI_WIND NEWDELHI_PRES NEWDELHI_CI NEWDELHI_DP NEWDELHI_POCI REUNION_LAT REUNION_LON REUNION_TYPE REUNION_WIND REUNION_PRES REUNION_TNUM REUNION_CI REUNION_RMW REUNION_R34_NE REUNION_R34_SE REUNION_R34_SW REUNION_R34_NW REUNION_R50_NE REUNION_R50_SE REUNION_R50_SW REUNION_R50_NW REUNION_R64_NE REUNION_R64_SE REUNION_R64_SW REUNION_R64_NW BOM_LAT BOM_LON BOM_TYPE BOM_WIND BOM_PRES BOM_TNUM BOM_CI BOM_RMW BOM_R34_NE BOM_R34_SE BOM_R34_SW BOM_R34_NW BOM_R50_NE BOM_R50_SE BOM_R50_SW BOM_R50_NW BOM_R64_NE BOM_R64_SE BOM_R64_SW BOM_R64_NW BOM_ROCI BOM_POCI BOM_EYE BOM_POS_METHOD BOM_PRES_METHOD NADI_LAT NADI_LON NADI_CAT NADI_WIND NADI_PRES WELLINGTON_LAT WELLINGTON_LON WELLINGTON_WIND WELLINGTON_PRES DS824_LAT DS824_LON DS824_STAGE DS824_WIND DS824_PRES TD9636_LAT TD9636_LON TD9636_STAGE TD9636_WIND TD9636_PRES TD9635_LAT TD9635_LON TD9635_WIND TD9635_PRES TD9635_ROCI NEUMANN_LAT NEUMANN_LON NEUMANN_CLASS NEUMANN_WIND NEUMANN_PRES MLC_LAT MLC_LON MLC_CLASS MLC_WIND MLC_PRES USA_GUST BOM_GUST BOM_GUST_PER REUNION_GUST REUNION_GUST_PER USA_SEAHGT USA_SEARAD_NE USA_SEARAD_SE USA_SEARAD_SW USA_SEARAD_NW STORM_SPEED STORM_DIR
1933133N09070 1933 14 NI AS NOT_NAMED 1933-05-13 00:00:00 TS 9.00000 70.1000 main 651 645 _________O____ -1 9.00000 70.1000 TC 30 4 337
1933133N09070 1933 14 NI AS NOT_NAMED 1933-05-13 03:00:00 TS 9.16667 70.0284 main 649 638 _________PO___ -1 9.25001 69.9925 TC 30 9.00000 70.1000 1 4 339
1933133N09070 1933 14 NI AS NOT_NAMED 1933-05-13 06:00:00 TS 9.39939 69.9438 main 648 638 _________OP___ -1 9.50000 69.9000 TC 30 9.24847 70.0095 1 5 342
1933133N09070 1933 14 NI AS NOT_NAMED 1933-05-13 09:00:00 TS 9.64180 69.8736 main 638 632 _________PP___ -1 9.75000 69.8350 TC 30 9.49754 69.9252 1 5 346
1933133N09070 1933 14 NI AS NOT_NAMED 1933-05-13 12:00:00 TS 9.87392 69.8266 main 632 622 _________OP___ -1 10.0000 69.8000 TC 30 9.74784 69.8532 1 5 352
1933133N09070 1933 14 NI AS NOT_NAMED 1933-05-13 15:00:00 TS 10.1250 69.8000 main 622 607 _________PO___ -1 10.2500 69.8000 TC 30 10.0000 69.8000 1 5 355
1933133N09070 1933 14 NI AS NOT_NAMED 1933-05-13 18:00:00 TS 10.3770 69.7843 main 607 597 _________OP___ -1 10.5000 69.8000 TC 30 10.2540 69.7686 1 5 355
1933133N09070 1933 14 NI AS NOT_NAMED 1933-05-13 21:00:00 TS 10.6325 69.7574 main 597 593 _________PP___ -1 10.7575 69.7650 TC 30 10.5075 69.7498 1 5 352
1933133N09070 1933 14 NI AS NOT_NAMED 1933-05-14 00:00:00 TS 10.8786 69.7156 main 594 586 _________OP___ -1 11.0000 69.7000 TC 30 10.7572 69.7311 1 5 347
1933133N09070 1933 14 NI AS NOT_NAMED 1933-05-14 03:00:00 TS 11.1000 69.6500 main 586 586 _________PO___ -1 11.2000 69.6000 TC 30 11.0000 69.7000 1 5 341
1933133N09070 1933 14 NI AS NOT_NAMED 1933-05-14 06:00:00 TS 11.3161 69.5657 main 590 587 _________OP___ -1 11.4000 69.5000 TC 30 11.2322 69.6313 1 5 341
1933133N09070 1933 14 NI AS NOT_NAMED 1933-05-14 09:00:00 TS 11.5538 69.4963 main 591 589 _________PP___ -1 11.6500 69.4425 TC 30 11.4575 69.5501 1 5 345
1933133N09070 1933 14 NI AS NOT_NAMED 1933-05-14 12:00:00 TS 11.7895 69.4344 main 597 593 _________OP___ -1 11.9000 69.4000 TC 30 11.6791 69.4688 1 5 344
1933133N09070 1933 14 NI AS NOT_NAMED 1933-05-14 15:00:00 TS 12.0000 69.3713 main 593 590 _________PO___ -1 12.1000 69.3425 TC 30 11.9000 69.4000 1 4 345
1933133N09070 1933 14 NI AS NOT_NAMED 1933-05-14 18:00:00 TS 12.1983 69.3303 main 593 581 _________OP___ -1 12.3000 69.3000 TC 30 12.0966 69.3605 1 4 352
1933133N09070 1933 14 NI AS NOT_NAMED 1933-05-14 21:00:00 TS 12.4088 69.3174 main 581 570 _________PP___ -1 12.5200 69.3000 TC 30 12.2975 69.3349 1 5 357
1933133N09070 1933 14 NI AS NOT_NAMED 1933-05-15 00:00:00 TS 12.6623 69.3084 main 564 549 _________OP___ -1 12.8000 69.3000 TC 30 12.5247 69.3168 1 6 356
1933133N09070 1933 14 NI AS NOT_NAMED 1933-05-15 03:00:00 TS 12.9888 69.2750 main 549 539 _________PO___ -1 13.1775 69.2501 TC 30 12.8000 69.3000 1 7 355
1933133N09070 1933 14 NI AS NOT_NAMED 1933-05-15 06:00:00 TS 13.3789 69.2355 main 541 524 _________OP___ -1 13.6000 69.2000 TC 30 13.1578 69.2710 1 8 356
1933133N09070 1933 14 NI AS NOT_NAMED 1933-05-15 09:00:00 TS 13.7850 69.2175 main 524 508 _________PP___ -1 14.0075 69.1925 TC 30 13.5625 69.2426 1 8 0
1933133N09070 1933 14 NI AS NOT_NAMED 1933-05-15 12:00:00 TS 14.1930 69.2089 main 508 488 _________OP___ -1 14.4000 69.2000 TC 30 13.9860 69.2179 1 8 0
1933133N09070 1933 14 NI AS NOT_NAMED 1933-05-15 15:00:00 TS 14.5787 69.2000 main 488 474 _________PO___ -1 14.7575 69.2000 TC 31 14.4000 69.2000 1 7 0
1933133N09070 1933 14 NI AS NOT_NAMED 1933-05-15 18:00:00 TS 14.9302 69.1944 main 474 458 _________OP___ -1 15.1000 69.2000 TC 32 14.7603 69.1887 1 7 358
1933133N09070 1933 14 NI AS NOT_NAMED 1933-05-15 21:00:00 TS 15.2750 69.1925 main 458 449 _________PP___ -1 15.4425 69.2000 TC 33 15.1075 69.1850 1 7 1
1933133N09070 1933 14 NI AS NOT_NAMED 1933-05-16 00:00:00 TS 15.6255 69.1944 main 449 441 _________OP___ -1 15.8000 69.2000 TC 34 15.4509 69.1888 1 7 1
1933133N09070 1933 14 NI AS NOT_NAMED 1933-05-16 03:00:00 TS 16.0000 69.1963 main 441 435 _________PO___ -1 16.2000 69.1925 TC 41 15.8000 69.2000 2 8 0
1933133N09070 1933 14 NI AS NOT_NAMED 1933-05-16 06:00:00 TS 16.3859 69.2069 main 435 426 _________OP___ -1 16.6000 69.2000 TC 49 16.1719 69.2138 2 8 3
1933133N09070 1933 14 NI AS NOT_NAMED 1933-05-16 09:00:00 TS 16.7537 69.2388 main 422 400 _________PP___ -1 16.9575 69.2425 TC 56 16.5500 69.2350 2 7 6
1933133N09070 1933 14 NI AS NOT_NAMED 1933-05-16 12:00:00 TS 17.1141 69.2819 main 400 389 _________OP___ -1 17.3000 69.3000 TC 64 16.9281 69.2638 2 7 6
1933133N09070 1933 14 NI AS NOT_NAMED 1933-05-16 15:00:00 TS 17.4750 69.3250 main 389 356 _________PO___ -1 17.6500 69.3500 TC 64 17.3000 69.3000 4 7 6
1933133N09070 1933 14 NI AS NOT_NAMED 1933-05-16 18:00:00 TS 17.8286 69.3694 main 356 315 _________OP___ -1 18.0000 69.4000 TC 64 17.6572 69.3388 4 7 7
1933133N09070 1933 14 NI AS NOT_NAMED 1933-05-16 21:00:00 TS 18.1787 69.4176 main 315 281 _________PP___ -1 18.3500 69.4500 TC 64 18.0075 69.3851 4 7 8
1933133N09070 1933 14 NI AS NOT_NAMED 1933-05-17 00:00:00 TS 18.5270 69.4694 main 281 242 _________OP___ -1 18.7000 69.5000 TC 64 18.3540 69.4388 4 7 8
1933133N09070 1933 14 NI AS NOT_NAMED 1933-05-17 03:00:00 TS 18.8750 69.5213 main 242 209 _________PO___ -1 19.0500 69.5426 TC 55 18.7000 69.5000 4 7 9
1933133N09070 1933 14 NI AS NOT_NAMED 1933-05-17 06:00:00 TS 19.2209 69.5819 main 209 176 _________OP___ -1 19.4000 69.6000 TC 47 19.0419 69.5639 4 7 11
1933133N09070 1933 14 NI AS NOT_NAMED 1933-05-17 09:00:00 TS 19.5637 69.6639 main 167 133 _________PP___ -1 19.7425 69.6925 TC 38 19.3850 69.6352 4 7 13
1933133N09070 1933 14 NI AS NOT_NAMED 1933-05-17 12:00:00 TS 19.9178 69.7570 main 133 98 _________OP___ -1 20.1000 69.8000 TC 30 19.7356 69.7139 4 8 14
1933133N09070 1933 14 NI AS NOT_NAMED 1933-05-17 15:00:00 TS 20.2962 69.8500 main 91 54 _________PO___ -1 20.4925 69.9000 TC 30 20.1000 69.8000 1 8 13
1933133N09070 1933 14 NI AS NOT_NAMED 1933-05-17 18:00:00 TS 20.7152 69.9523 main 49 10 _________OP___ -1 20.9000 70.0000 TC 30 20.5303 69.9047 1 9 13
1933133N09070 1933 14 NI AS NOT_NAMED 1933-05-17 21:00:00 TS 21.1525 70.0647 main 0 0 _________PP___ -1 21.3375 70.1149 TC 30 20.9675 70.0145 1 8 13
1933133N09070 1933 14 NI AS NOT_NAMED 1933-05-18 00:00:00 TS 21.5355 70.1586 main 0 0 _________OP___ -1 21.7000 70.2000 TC 30 21.3710 70.1171 1 7 12
1933133N09070 1933 14 NI AS NOT_NAMED 1933-05-18 03:00:00 TS 21.7975 70.2038 main 0 0 _________PO___ -1 21.8950 70.2076 TC 30 21.7000 70.2000 1 4 8
1933133N09070 1933 14 NI AS NOT_NAMED 1933-05-18 06:00:00 TS 21.9561 70.2234 main 0 0 _________OP___ -1 22.0000 70.2000 TC 30 21.9121 70.2469 1 3 11
1933133N09070 1933 14 NI AS NOT_NAMED 1933-05-18 09:00:00 TS 22.0775 70.2614 main 0 0 _________PP___ -1 22.1075 70.2500 TC 30 22.0474 70.2729 1 2 17
1933133N09070 1933 14 NI AS NOT_NAMED 1933-05-18 12:00:00 TS 22.1670 70.2937 main 0 0 _________OP___ -1 22.2000 70.3000 TC 30 22.1340 70.2874 1 2 14
1933133N09070 1933 14 NI AS NOT_NAMED 1933-05-18 15:00:00 TS 22.2537 70.3000 main 0 0 _________PO___ -1 22.3075 70.3000 TC 30 22.2000 70.3000 1 2 4
1933133N09070 1933 14 NI AS NOT_NAMED 1933-05-18 18:00:00 TS 22.3248 70.3105 main 0 0 _________OP___ -1 22.4000 70.3000 TC 30 22.2685 70.3183 1 1 18
1933133N09070 1933 14 NI AS NOT_NAMED 1933-05-18 21:00:00 TS 22.3895 70.3404 main 0 0 _________PP___ -1 22.4600 70.3375 TC 30 22.3425 70.3423 1 1 31
1933133N09070 1933 14 NI AS NOT_NAMED 1933-05-19 00:00:00 TS 22.4469 70.3801 main 0 0 _________OP___ -1 22.5000 70.4000 TC 30 22.4203 70.3702 1 1 28
1933133N09070 1933 14 NI AS NOT_NAMED 1933-05-19 03:00:00 NR 22.5000 70.4000 main 0 __________O___ -1 TC 22.5000 70.4000 1 1 18

About IBTrACS Database

This database is a web-friendly format of International Best Track Archive for Climate Stewardship (IBTrACS), a global best track data archive curated by NOAA dating back to 1842.

Updated: 2021-12-03